Terminal Aerodrome Forecast
Issued by NWS Medford, OR

Home | Current Version | Previous Version | Text Only | Print | Product List | Glossary On
Versions: 1 2 3 4 5 6 7 8 9 10 11 12 13
000
FTUS46 KMFR 241744
TAFMFR
TAF
KMFR 241744Z 2418/2518 30008G15KT P6SM SKC
     FM242100 33013G20KT P6SM SKC
     FM250500 35010KT P6SM SKC=

USA.gov is the U.S. government's official web portal to all federal, state and local government web resources and services.